createdAt,value
2023-10-18T00:01:59.100Z,16.08
2023-10-18T00:04:26.018Z,16.20
2023-10-18T00:06:56.040Z,19.08
2023-10-18T00:09:42.063Z,16.55
2023-10-18T00:12:08.840Z,18.73
2023-10-18T00:14:36.350Z,20.38
2023-10-18T00:17:02.899Z,18.40
2023-10-18T00:19:29.714Z,17.08
2023-10-18T00:21:56.567Z,17.17
2023-10-18T00:24:23.131Z,15.40
2023-10-18T00:26:49.754Z,16.30
2023-10-18T00:29:16.297Z,19.75
2023-10-18T00:31:42.897Z,19.08
2023-10-18T00:34:10.326Z,16.23
2023-10-18T00:36:36.951Z,16.02
2023-10-18T00:39:19.601Z,16.25
2023-10-18T00:41:46.222Z,16.60
2023-10-18T00:44:13.246Z,15.48
2023-10-18T00:46:40.729Z,16.08
2023-10-18T00:49:15.000Z,18.98
2023-10-18T00:51:45.531Z,14.60
2023-10-18T00:54:12.630Z,18.20
2023-10-18T00:56:46.958Z,14.38
2023-10-18T00:59:22.242Z,18.38
2023-10-18T01:02:04.684Z,16.75
2023-10-18T01:04:35.707Z,15.23
2023-10-18T01:07:12.521Z,16.73
2023-10-18T01:09:45.057Z,15.38
2023-10-18T01:12:12.832Z,16.92
2023-10-18T01:14:39.390Z,14.32
2023-10-18T01:17:07.958Z,16.73
2023-10-18T01:23:57.607Z,13.95
2023-10-18T01:26:25.040Z,13.20
2023-10-18T01:28:53.476Z,12.52
2023-10-18T01:33:48.857Z,16.42
2023-10-18T01:36:17.290Z,14.32
2023-10-18T01:38:45.735Z,18.38
2023-10-18T01:41:26.665Z,17.63
2023-10-18T01:43:56.808Z,19.30
2023-10-18T01:46:24.732Z,13.90
2023-10-18T01:48:52.512Z,16.55
2023-10-18T01:51:19.483Z,12.13
2023-10-18T01:53:46.122Z,16.77
2023-10-18T01:56:12.661Z,15.95
2023-10-18T01:58:39.600Z,15.20
2023-10-18T02:01:11.977Z,15.57
2023-10-18T02:03:40.661Z,16.30
2023-10-18T02:06:08.165Z,14.65
2023-10-18T02:08:37.540Z,18.98
2023-10-18T02:11:08.694Z,14.63
2023-10-18T02:13:35.561Z,15.75
2023-10-18T02:16:02.139Z,14.20
2023-10-18T02:18:28.784Z,13.15
2023-10-18T02:20:55.582Z,15.55
2023-10-18T02:23:25.129Z,12.68
2023-10-18T02:25:51.695Z,15.70
2023-10-18T02:28:25.143Z,16.60
2023-10-18T02:31:07.867Z,17.08
2023-10-18T02:33:37.802Z,19.83
2023-10-18T02:36:28.663Z,14.55
2023-10-18T02:38:55.238Z,16.05
2023-10-18T02:41:22.395Z,16.38
2023-10-18T02:43:52.347Z,15.55
2023-10-18T02:46:22.151Z,16.23
2023-10-18T02:48:51.569Z,16.08
2023-10-18T02:51:23.319Z,15.55
2023-10-18T02:53:51.203Z,17.75
2023-10-18T02:56:28.615Z,16.73
2023-10-18T02:58:58.915Z,15.60
2023-10-18T03:01:27.023Z,12.82
2023-10-18T03:03:56.661Z,16.98
2023-10-18T03:06:29.101Z,14.43
2023-10-18T03:08:59.680Z,13.82
2023-10-18T03:11:26.772Z,13.48
2023-10-18T03:13:53.606Z,14.50
2023-10-18T03:16:29.390Z,12.80
2023-10-18T03:18:56.195Z,14.23
2023-10-18T03:21:22.984Z,15.98
2023-10-18T03:23:53.098Z,21.27
2023-10-18T03:26:39.083Z,19.63
2023-10-18T03:29:16.859Z,15.30
2023-10-18T03:31:45.182Z,14.32
2023-10-18T03:34:19.864Z,14.23
2023-10-18T03:36:50.814Z,14.07
2023-10-18T03:39:17.801Z,17.80
2023-10-18T03:41:45.133Z,17.90
2023-10-18T03:44:14.357Z,15.82
2023-10-18T03:46:50.221Z,11.77
2023-10-18T03:49:33.313Z,16.60
2023-10-18T03:52:07.735Z,17.77
2023-10-18T03:55:06.428Z,15.38
2023-10-18T03:57:43.051Z,13.38
2023-10-18T04:00:26.359Z,13.88
2023-10-18T04:03:00.789Z,12.90
2023-10-18T04:05:42.847Z,14.63
2023-10-18T04:08:15.899Z,14.57
2023-10-18T04:10:43.263Z,15.95
2023-10-18T04:13:13.246Z,12.70
2023-10-18T04:15:47.438Z,13.07
2023-10-18T04:18:14.721Z,15.57
2023-10-18T04:20:47.976Z,12.85
2023-10-18T04:23:22.904Z,13.73
2023-10-18T04:26:02.490Z,14.07
2023-10-18T04:28:38.272Z,15.50
2023-10-18T04:31:06.384Z,11.63
2023-10-18T04:33:36.721Z,14.45
2023-10-18T04:36:13.814Z,13.13
2023-10-18T04:38:47.916Z,20.17
2023-10-18T04:41:26.112Z,14.48
2023-10-18T04:44:06.899Z,14.68
2023-10-18T04:46:37.405Z,11.05
2023-10-18T04:49:11.104Z,12.15
2023-10-18T04:51:37.705Z,13.32
2023-10-18T04:54:18.257Z,14.32
2023-10-18T04:56:46.516Z,13.35
2023-10-18T04:59:20.067Z,10.95
2023-10-18T05:01:54.091Z,14.23
2023-10-18T05:04:33.105Z,19.77
2023-10-18T05:07:15.798Z,14.80
2023-10-18T05:09:44.629Z,14.63
2023-10-18T05:12:15.588Z,17.55
2023-10-18T05:14:55.185Z,14.07
2023-10-18T05:17:31.681Z,15.75
2023-10-18T05:19:58.579Z,11.40
2023-10-18T05:22:26.728Z,13.90
2023-10-18T05:25:24.275Z,13.30
2023-10-18T05:28:01.063Z,14.48
2023-10-18T05:30:28.805Z,13.45
2023-10-18T05:33:01.636Z,15.27
2023-10-18T05:35:28.654Z,24.25
2023-10-18T05:38:00.245Z,12.02
2023-10-18T05:40:39.937Z,12.82
2023-10-18T05:43:14.461Z,16.08
2023-10-18T05:45:44.197Z,12.30
2023-10-18T05:48:14.210Z,12.00
2023-10-18T05:50:41.122Z,11.82
2023-10-18T05:53:13.485Z,14.35
2023-10-18T05:55:40.037Z,15.63
2023-10-18T05:58:07.110Z,17.73
2023-10-18T06:00:38.038Z,16.90
2023-10-18T06:03:04.827Z,13.45
2023-10-18T06:05:37.194Z,13.75
2023-10-18T06:08:08.767Z,12.20
2023-10-18T06:10:39.692Z,15.23
2023-10-18T06:13:11.209Z,16.35
2023-10-18T06:15:40.704Z,13.77
2023-10-18T06:18:07.391Z,12.13
2023-10-18T06:20:42.316Z,14.88
2023-10-18T06:23:31.404Z,12.07
2023-10-18T06:25:59.170Z,13.07
2023-10-18T06:28:26.253Z,16.70
2023-10-18T06:30:54.178Z,19.15
2023-10-18T06:33:22.366Z,12.00
2023-10-18T06:35:55.019Z,12.38
2023-10-18T06:38:25.650Z,12.95
2023-10-18T06:41:05.543Z,12.63
2023-10-18T06:43:33.961Z,12.40
2023-10-18T06:46:01.118Z,17.83
2023-10-18T06:48:29.817Z,12.15
2023-10-18T06:50:56.885Z,12.27
2023-10-18T06:53:23.605Z,14.30
2023-10-18T06:56:09.034Z,14.05
2023-10-18T06:58:41.590Z,18.08
2023-10-18T07:01:21.405Z,18.00
2023-10-18T07:03:49.319Z,12.15
2023-10-18T07:06:42.084Z,13.18
2023-10-18T07:09:25.969Z,14.88
2023-10-18T07:11:58.760Z,13.13
2023-10-18T07:14:25.821Z,13.45
2023-10-18T07:16:56.227Z,13.48
2023-10-18T07:19:27.865Z,12.98
2023-10-18T07:21:55.996Z,13.88
2023-10-18T07:24:22.731Z,16.08
2023-10-18T07:26:49.551Z,13.77
2023-10-18T07:29:16.758Z,10.55
2023-10-18T07:31:46.454Z,12.45
2023-10-18T07:34:19.177Z,14.60
2023-10-18T07:36:46.904Z,14.82
2023-10-18T07:39:14.035Z,14.65
2023-10-18T07:41:42.089Z,12.43
2023-10-18T07:44:08.998Z,13.18
2023-10-18T07:46:40.669Z,13.30
2023-10-18T07:49:15.907Z,9.80
2023-10-18T07:51:50.186Z,13.82
2023-10-18T07:54:21.524Z,15.25
2023-10-18T07:56:51.525Z,12.77
2023-10-18T07:59:31.624Z,13.07
2023-10-18T08:02:08.571Z,16.45
2023-10-18T08:04:37.643Z,10.48
2023-10-18T08:07:05.648Z,14.07
2023-10-18T08:09:33.034Z,10.52
2023-10-18T08:12:29.156Z,15.50
2023-10-18T08:14:56.241Z,10.93
2023-10-18T08:17:44.540Z,13.35
2023-10-18T08:20:24.299Z,13.70
2023-10-18T08:22:51.858Z,12.32
2023-10-18T08:25:25.495Z,12.70
2023-10-18T08:27:52.668Z,15.50
2023-10-18T08:30:25.941Z,11.48
2023-10-18T08:32:53.009Z,11.38
2023-10-18T08:35:21.438Z,13.07
2023-10-18T08:37:48.549Z,12.45
2023-10-18T08:40:29.171Z,13.48
2023-10-18T08:43:10.592Z,11.82
2023-10-18T08:48:17.589Z,13.57
2023-10-18T08:50:46.335Z,12.57
2023-10-18T08:53:16.307Z,12.15
2023-10-18T08:55:52.693Z,12.25
2023-10-18T08:58:20.626Z,12.23
2023-10-18T09:00:47.645Z,13.75
2023-10-18T09:03:17.860Z,9.23
2023-10-18T09:05:45.450Z,12.15
2023-10-18T09:08:20.502Z,11.07
2023-10-18T09:10:56.194Z,12.20
2023-10-18T09:13:24.916Z,13.80
2023-10-18T09:16:00.270Z,13.07
2023-10-18T09:18:32.921Z,13.43
2023-10-18T09:21:09.102Z,11.00
2023-10-18T09:23:36.330Z,9.55
2023-10-18T09:26:06.213Z,25.98
2023-10-18T09:28:36.939Z,12.38
2023-10-18T09:31:12.409Z,11.52
2023-10-18T09:33:41.961Z,12.52
2023-10-18T09:36:24.871Z,9.35
2023-10-18T09:38:52.970Z,11.60
2023-10-18T09:41:20.374Z,16.90
2023-10-18T09:43:50.437Z,10.95
2023-10-18T09:46:17.907Z,10.45
2023-10-18T09:48:47.030Z,11.70
2023-10-18T09:51:22.613Z,9.52
2023-10-18T09:53:53.747Z,10.00
2023-10-18T09:56:38.638Z,12.02
2023-10-18T09:59:09.422Z,11.70
2023-10-18T10:01:45.694Z,8.55
2023-10-18T10:04:15.736Z,11.35
2023-10-18T10:06:48.584Z,21.60
2023-10-18T10:09:19.352Z,9.90
2023-10-18T10:11:47.456Z,13.13
2023-10-18T10:14:18.455Z,9.88
2023-10-18T10:16:55.912Z,10.40
2023-10-18T10:19:27.314Z,12.80
2023-10-18T10:21:56.120Z,11.38
2023-10-18T10:24:37.664Z,9.23
2023-10-18T10:27:33.084Z,12.07
2023-10-18T10:30:23.115Z,10.82
2023-10-18T10:32:54.675Z,11.15
2023-10-18T10:35:25.656Z,11.18
2023-10-18T10:37:57.055Z,14.15
2023-10-18T10:40:33.397Z,10.68
2023-10-18T10:43:04.014Z,12.00
2023-10-18T10:45:36.717Z,11.10
2023-10-18T10:48:32.949Z,12.55
2023-10-18T10:51:15.126Z,14.05
2023-10-18T10:53:45.821Z,12.52
2023-10-18T10:56:20.491Z,13.02
2023-10-18T10:58:55.572Z,11.63
2023-10-18T11:01:45.607Z,10.93
2023-10-18T11:04:25.882Z,11.05
2023-10-18T11:07:02.283Z,12.90
2023-10-18T11:09:40.120Z,11.15
2023-10-18T11:12:14.921Z,8.50
2023-10-18T11:14:44.765Z,9.55
2023-10-18T11:17:15.432Z,11.25
2023-10-18T11:19:52.745Z,12.75
2023-10-18T11:22:24.076Z,14.05
2023-10-18T11:24:52.088Z,8.82
2023-10-18T11:27:23.065Z,12.70
2023-10-18T11:29:57.031Z,15.88
2023-10-18T11:32:28.631Z,14.13
2023-10-18T11:35:10.536Z,13.00
2023-10-18T11:37:39.161Z,14.88
2023-10-18T11:40:17.179Z,19.42
2023-10-18T11:42:55.102Z,11.80
2023-10-18T11:45:23.097Z,11.80
2023-10-18T11:47:52.485Z,11.68
2023-10-18T11:50:24.965Z,16.83
2023-10-18T11:52:53.577Z,9.73
2023-10-18T11:55:24.081Z,13.05
2023-10-18T11:57:52.645Z,12.93
2023-10-18T12:00:24.815Z,12.50
2023-10-18T12:02:52.840Z,11.13
2023-10-18T12:05:25.088Z,10.88
2023-10-18T12:07:54.465Z,11.70
2023-10-18T12:10:30.931Z,13.07
2023-10-18T12:12:59.244Z,12.82
2023-10-18T12:15:31.770Z,14.35
2023-10-18T12:18:03.021Z,13.65
2023-10-18T12:20:36.525Z,18.45
2023-10-18T12:23:16.608Z,12.27
2023-10-18T12:25:44.045Z,12.10
2023-10-18T12:28:14.683Z,15.73
2023-10-18T12:30:43.774Z,11.65
2023-10-18T12:33:15.770Z,15.27
2023-10-18T12:35:42.743Z,11.10
2023-10-18T12:38:22.278Z,20.52
2023-10-18T12:41:00.256Z,14.05
2023-10-18T12:43:27.376Z,13.05
2023-10-18T12:45:54.229Z,14.40
2023-10-18T12:48:24.851Z,15.93
2023-10-18T12:51:01.727Z,9.02
2023-10-18T12:53:28.496Z,14.10
2023-10-18T12:56:12.530Z,12.25
2023-10-18T12:58:49.197Z,15.50
2023-10-18T13:01:17.513Z,12.20
2023-10-18T13:06:31.998Z,14.55
2023-10-18T13:09:14.702Z,10.50
2023-10-18T13:11:45.690Z,10.32
2023-10-18T13:14:17.964Z,14.05
2023-10-18T13:16:44.649Z,15.20
2023-10-18T13:19:15.473Z,12.45
2023-10-18T13:21:42.421Z,13.95
2023-10-18T13:24:24.112Z,18.85
2023-10-18T13:26:55.634Z,15.32
2023-10-18T13:29:22.833Z,13.25
2023-10-18T13:31:51.738Z,13.45
2023-10-18T13:34:21.692Z,13.23
2023-10-18T13:36:56.080Z,11.38
2023-10-18T13:39:24.135Z,12.15
2023-10-18T13:41:51.091Z,16.17
2023-10-18T13:44:26.755Z,18.33
2023-10-18T13:47:12.030Z,12.68
2023-10-18T13:49:43.467Z,15.02
2023-10-18T13:52:12.322Z,12.20
2023-10-18T13:54:39.145Z,14.30
2023-10-18T13:57:06.635Z,16.33
2023-10-18T13:59:35.415Z,16.50
2023-10-18T14:02:02.115Z,16.48
2023-10-18T14:04:31.163Z,13.55
2023-10-18T14:06:59.520Z,13.25
2023-10-18T14:09:26.685Z,19.60
2023-10-18T14:11:53.668Z,15.82
2023-10-18T14:14:21.267Z,14.85
2023-10-18T14:16:48.191Z,20.38
2023-10-18T14:19:19.991Z,15.45
2023-10-18T14:21:49.579Z,16.45
2023-10-18T14:24:23.139Z,16.17
2023-10-18T14:26:49.986Z,17.58
2023-10-18T14:29:16.938Z,19.27
2023-10-18T14:31:44.000Z,13.35
2023-10-18T14:34:10.763Z,18.38
2023-10-18T14:36:39.457Z,17.35
2023-10-18T14:39:07.222Z,15.63
2023-10-18T14:41:35.084Z,12.38
2023-10-18T14:44:02.540Z,13.30
2023-10-18T14:46:31.875Z,15.00
2023-10-18T14:49:00.726Z,13.55
2023-10-18T14:51:28.549Z,15.25
2023-10-18T14:53:55.306Z,15.88
2023-10-18T14:56:24.374Z,20.88
2023-10-18T14:58:53.218Z,12.32
2023-10-18T15:01:20.053Z,13.45
2023-10-18T15:03:48.059Z,16.30
2023-10-18T15:06:18.221Z,14.77
2023-10-18T15:08:45.827Z,18.52
2023-10-18T15:11:19.003Z,12.23
2023-10-18T15:13:48.206Z,15.32
2023-10-18T15:16:18.786Z,19.60
2023-10-18T15:18:49.700Z,13.65
2023-10-18T15:21:17.490Z,13.05
2023-10-18T15:23:47.617Z,13.00
2023-10-18T15:26:27.050Z,14.65
2023-10-18T15:28:54.240Z,14.98
2023-10-18T15:31:22.336Z,12.35
2023-10-18T15:33:49.114Z,13.93
2023-10-18T15:36:25.224Z,15.60
2023-10-18T15:38:56.330Z,13.95
2023-10-18T15:41:24.341Z,14.70
2023-10-18T15:43:53.707Z,14.50
2023-10-18T15:46:28.103Z,14.55
2023-10-18T15:48:58.697Z,14.18
2023-10-18T15:51:25.807Z,15.30
2023-10-18T15:53:57.671Z,12.68
2023-10-18T15:56:26.733Z,12.75
2023-10-18T15:58:55.206Z,17.08
2023-10-18T16:01:22.480Z,11.35
2023-10-18T16:03:49.671Z,12.68
2023-10-18T16:06:17.528Z,18.30
2023-10-18T16:08:45.478Z,11.93
2023-10-18T16:11:12.114Z,14.05
2023-10-18T16:13:41.389Z,12.73
2023-10-18T16:16:10.889Z,13.07
2023-10-18T16:18:39.299Z,10.07
2023-10-18T16:21:07.967Z,19.52
2023-10-18T16:23:41.045Z,12.13
2023-10-18T16:26:10.950Z,10.55
2023-10-18T16:28:43.399Z,15.18
2023-10-18T16:31:14.394Z,11.65
2023-10-18T16:33:41.865Z,15.57
2023-10-18T16:36:09.518Z,12.73
2023-10-18T16:38:37.673Z,14.20
2023-10-18T16:41:05.613Z,13.02
2023-10-18T16:43:36.728Z,10.27
2023-10-18T16:46:07.246Z,11.88
2023-10-18T16:48:35.477Z,11.75
2023-10-18T16:51:06.796Z,12.25
2023-10-18T16:53:38.520Z,12.85
2023-10-18T16:56:05.886Z,10.80
2023-10-18T16:58:33.107Z,15.75
2023-10-18T17:01:00.890Z,11.75
2023-10-18T17:03:28.929Z,11.63
2023-10-18T17:05:57.110Z,14.60
2023-10-18T17:08:23.841Z,12.43
2023-10-18T17:10:50.554Z,15.60
2023-10-18T17:13:18.495Z,12.10
2023-10-18T17:15:45.776Z,13.50
2023-10-18T17:18:12.905Z,11.68
2023-10-18T17:20:39.569Z,15.90
2023-10-18T17:23:06.172Z,12.90
2023-10-18T17:25:32.726Z,12.55
2023-10-18T17:27:59.302Z,13.00
2023-10-18T17:30:26.865Z,17.00
2023-10-18T17:32:55.883Z,11.48
2023-10-18T17:35:22.866Z,15.13
2023-10-18T17:37:50.164Z,12.77
2023-10-18T17:40:20.228Z,15.32
2023-10-18T17:42:48.898Z,14.85
2023-10-18T17:45:17.286Z,12.73
2023-10-18T17:50:12.572Z,10.50
2023-10-18T17:52:40.685Z,13.43
2023-10-18T17:55:11.076Z,12.63
2023-10-18T17:57:38.918Z,13.20
2023-10-18T18:00:10.910Z,11.60
2023-10-18T18:02:46.661Z,9.25
2023-10-18T18:05:14.096Z,10.45
2023-10-18T18:07:40.810Z,8.95
2023-10-18T18:10:12.772Z,13.50
2023-10-18T18:12:41.546Z,13.35
2023-10-18T18:15:12.963Z,10.38
2023-10-18T18:17:40.355Z,9.20
2023-10-18T18:20:15.702Z,12.48
2023-10-18T18:22:43.412Z,12.23
2023-10-18T18:25:10.641Z,12.30
2023-10-18T18:27:37.416Z,9.35
2023-10-18T18:30:07.667Z,10.10
2023-10-18T18:32:41.431Z,12.05
2023-10-18T18:35:14.462Z,11.85
2023-10-18T18:37:44.780Z,16.70
2023-10-18T18:40:12.290Z,15.85
2023-10-18T18:42:39.896Z,17.45
2023-10-18T18:45:10.403Z,10.77
2023-10-18T18:47:41.314Z,12.98
2023-10-18T18:50:10.441Z,12.20
2023-10-18T18:52:41.813Z,10.40
2023-10-18T18:55:10.513Z,11.45
2023-10-18T18:57:37.787Z,14.20
2023-10-18T19:00:17.077Z,11.43
2023-10-18T19:02:45.733Z,12.25
2023-10-18T19:05:12.463Z,14.13
2023-10-18T19:07:41.452Z,12.05
2023-10-18T19:10:11.012Z,12.73
2023-10-18T19:12:38.358Z,11.23
2023-10-18T19:15:09.300Z,14.05
2023-10-18T19:17:35.980Z,14.77
2023-10-18T19:20:04.346Z,12.23
2023-10-18T19:25:00.084Z,12.90
2023-10-18T19:27:26.679Z,13.70
2023-10-18T19:29:53.192Z,15.35
2023-10-18T19:32:19.783Z,14.80
2023-10-18T19:34:46.404Z,11.63
2023-10-18T19:37:12.978Z,14.95
2023-10-18T19:39:39.629Z,13.48
2023-10-18T19:42:07.133Z,13.43
2023-10-18T19:44:33.846Z,13.77
2023-10-18T19:47:00.418Z,13.77
2023-10-18T19:49:27.224Z,14.57
2023-10-18T19:51:53.925Z,15.38
2023-10-18T19:54:20.469Z,12.00
2023-10-18T19:56:47.971Z,12.70
2023-10-18T19:59:16.735Z,21.30
2023-10-18T20:01:43.448Z,12.45
2023-10-18T20:04:10.242Z,13.88
2023-10-18T20:06:38.192Z,12.80
2023-10-18T20:09:06.626Z,11.85
2023-10-18T20:14:09.804Z,12.25
2023-10-18T20:16:36.529Z,14.73
2023-10-18T20:19:03.391Z,13.65
2023-10-18T20:21:30.170Z,11.82
2023-10-18T20:23:56.768Z,20.35
2023-10-18T20:26:26.295Z,15.50
2023-10-18T20:28:56.007Z,17.80
2023-10-18T20:31:27.378Z,14.07
2023-10-18T20:33:54.682Z,14.95
2023-10-18T20:36:21.382Z,19.60
2023-10-18T20:38:50.042Z,16.10
2023-10-18T20:41:19.988Z,16.45
2023-10-18T20:43:50.870Z,15.82
2023-10-18T20:46:17.711Z,16.83
2023-10-18T20:48:50.736Z,25.45
2023-10-18T20:51:19.354Z,24.15
2023-10-18T20:56:19.975Z,21.63
2023-10-18T20:58:47.256Z,18.67
2023-10-18T21:01:29.269Z,18.20
2023-10-18T21:03:59.456Z,17.15
2023-10-18T21:06:31.474Z,20.88
2023-10-18T21:08:58.507Z,21.65
2023-10-18T21:11:25.185Z,20.17
2023-10-18T21:13:52.408Z,18.17
2023-10-18T21:16:19.715Z,22.25
2023-10-18T21:18:48.815Z,16.55
2023-10-18T21:21:16.577Z,18.88
2023-10-18T21:23:45.498Z,20.35
2023-10-18T21:26:13.659Z,17.25
2023-10-18T21:28:40.931Z,19.50
2023-10-18T21:31:08.953Z,18.38
2023-10-18T21:33:35.903Z,21.08
2023-10-18T21:36:08.197Z,18.85
2023-10-18T21:38:39.445Z,19.40
2023-10-18T21:41:11.786Z,19.13
2023-10-18T21:43:38.356Z,20.17
2023-10-18T21:46:06.444Z,19.10
2023-10-18T21:48:36.858Z,20.67
2023-10-18T21:51:06.564Z,18.58
2023-10-18T21:53:33.537Z,20.38
2023-10-18T21:56:02.001Z,18.48
2023-10-18T22:01:04.051Z,19.58
2023-10-18T22:03:35.093Z,19.60
2023-10-18T22:06:02.716Z,20.30
2023-10-18T22:08:32.759Z,21.70
2023-10-18T22:11:02.344Z,20.05
2023-10-18T22:13:32.223Z,18.80
2023-10-18T22:16:03.080Z,20.58
2023-10-18T22:18:38.412Z,21.80
2023-10-18T22:21:07.316Z,19.90
2023-10-18T22:23:37.632Z,25.20
2023-10-18T22:26:16.021Z,22.38
2023-10-18T22:28:43.258Z,21.42
2023-10-18T22:31:10.251Z,21.95
2023-10-18T22:33:39.690Z,22.80
2023-10-18T22:36:09.685Z,23.58
2023-10-18T22:38:41.443Z,25.25
2023-10-18T22:41:23.492Z,23.40
2023-10-18T22:43:53.685Z,24.25
2023-10-18T22:46:41.602Z,24.10
2023-10-18T22:49:21.541Z,27.92
2023-10-18T22:51:59.792Z,28.10
2023-10-18T22:54:39.625Z,26.27
2023-10-18T22:57:17.471Z,28.60
2023-10-18T22:59:44.695Z,27.98
2023-10-18T23:06:11.727Z,28.45
2023-10-18T23:08:38.337Z,27.52
2023-10-18T23:11:20.136Z,31.98
2023-10-18T23:13:49.591Z,31.75
2023-10-18T23:16:38.015Z,35.42
2023-10-18T23:19:23.731Z,30.25
2023-10-18T23:21:50.999Z,32.80
2023-10-18T23:24:17.531Z,36.55
2023-10-18T23:27:02.705Z,36.45
2023-10-18T23:29:56.733Z,35.75
2023-10-18T23:32:23.410Z,31.52
2023-10-18T23:34:52.940Z,33.72
2023-10-18T23:37:38.861Z,32.90
2023-10-18T23:40:16.908Z,35.55
2023-10-18T23:42:52.916Z,32.08
2023-10-18T23:45:21.311Z,32.75
2023-10-18T23:50:21.302Z,33.53
2023-10-18T23:52:50.824Z,39.15
2023-10-18T23:55:23.773Z,36.42
2023-10-18T23:57:50.563Z,34.30
